NLSK1: Solomon River, Niles, KS

                                SHEF ID:       NLSK1     SOLOMON R AT NILES, KS
STATION TYPE:

PRECIP STAGE RIV-FLOW BAT-LOAD
in ft cfs volt
Ccp-Rev Ccp-Rev Ccp-Rev Ccp-Rev
(America/Chicago)
06/19 00:00 0.00 7.50 521 12.02
06/19 01:00 0.00 7.48 518 11.96
06/19 02:00 0.00 7.45 513 11.94
06/19 03:00 0.00 7.42 508 11.88
06/19 04:00 0.00 7.39 503 11.88
06/19 05:00 0.00 7.36 498 11.88
06/19 06:00 0.00 7.34 494 11.87
06/19 07:00 0.00 7.31 489 11.90
06/19 08:00 0.00 7.28 484 11.90
06/19 09:00 0.00 7.26 481 11.88
06/19 10:00 0.00 7.23 476 12.54
06/19 11:00 0.00 7.18 468 12.73
06/19 12:00 0.00 7.18 468 12.82
06/19 13:00 0.00 7.14 461 12.73
06/19 14:00 0.00 7.09 453 12.53
06/19 15:00 0.00 7.08 452 12.31
06/19 16:00 0.00 7.06 448 12.27
06/19 17:00 0.00 7.04 445 11.96
06/19 18:00 0.00 7.04 445 11.99
06/19 19:00 0.00 7.05 447 12.01
06/19 20:00 0.00 7.03 443 12.04
06/19 21:00 0.00 7.01 440 11.99
06/19 22:00 0.00 6.99 437 11.94
06/19 23:00 0.00 6.97 434 11.91
Data processed at Mon 22Jun2026 03:41 GMT

NOTICE: If you are parsing this page

Please convert to using our Data API. Starting early 2026 we will be migrating to: https://water.usace.army.mil with modern pages rendered in JavaScript. When this migration completes you will no longer be able to scrape this page! CWMSDataAPI (CDA)

Timeseries IDs (TSIDs)

TSIDs used from left to right in the data table
NLSK.Precip-Inc.Total.1Hour.1Hour.Ccp-Rev
NLSK.Stage.Inst.1Hour.0.Ccp-Rev
NLSK.Flow.Inst.1Hour.0.Ccp-Rev
NLSK.Volt-Battery Load.Inst.1Hour.0.Ccp-Rev

                            

All information presented herein is the property of the government of the United States of America and may be revised or deleted at any time without prior notice. Dissemination of this information without the expressed written consent of the Public Affairs Office, Tulsa District U.S. Army Corps of Engineers is strictly prohibited. These data are gathered electronically and, as presented, have NOT undergone any form of quality control. These data are NOT guaranteed to be valid or correct.